Time;durP1;ratioP1;P1;durP2;ratioP2;P2;SDS_P1;SDS_P2;PMS_P1;PMS_P2;Temp;Humidity;BMP_temperature;BMP_pressure;BME280_temperature;BME280_humidity;BME280_pressure;Samples;Min_cycle;Max_cycle;Signal;HPM_P1;HPM_P2
2022/04/19 00:00:31;;;;;;;7.43;3.90;;;;;;;18.57;100.00;99153.58;1753645;81;21736;-70
2022/04/19 00:02:58;;;;;;;5.73;3.97;;;;;;;18.55;100.00;99152.25;1753047;81;21757;-59
2022/04/19 00:05:26;;;;;;;7.47;4.33;;;;;;;18.40;100.00;99142.46;1753645;81;21473;-59
2022/04/19 00:07:56;;;;;;;8.03;4.20;;;;;;;18.56;100.00;99133.53;1753457;81;20963;-75
2022/04/19 00:10:23;;;;;;;7.10;4.10;;;;;;;18.64;100.00;99133.00;1753813;81;21382;-70
2022/04/19 00:12:52;;;;;;;7.30;3.63;;;;;;;18.70;100.00;99137.24;1753623;81;21714;-59
2022/04/19 00:15:21;;;;;;;9.27;4.00;;;;;;;18.70;100.00;99137.24;1753780;81;21142;-62
2022/04/19 00:17:50;;;;;;;8.17;4.03;;;;;;;18.87;100.00;99134.36;1752931;81;21003;-64
2022/04/19 00:20:18;;;;;;;7.90;4.90;;;;;;;18.74;100.00;99132.77;1753035;81;21459;-66
2022/04/19 00:22:51;;;;;;;7.40;4.73;;;;;;;18.74;100.00;99132.77;1741287;81;22055;-60
2022/04/19 00:25:19;;;;;;;10.08;5.10;;;;;;;18.77;100.00;99115.08;1753093;81;21938;-66
2022/04/19 00:27:48;;;;;;;9.27;5.10;;;;;;;18.76;100.00;99118.25;1752859;81;21517;-59
2022/04/19 00:30:15;;;;;;;10.00;4.83;;;;;;;19.51;100.00;99134.26;1752472;81;21451;-62
2022/04/19 00:32:43;;;;;;;9.13;5.27;;;;;;;19.39;100.00;99149.06;1753457;81;21514;-62
2022/04/19 00:35:11;;;;;;;6.77;4.10;;;;;;;19.39;100.00;99149.06;1753445;81;21019;-61
2022/04/19 00:37:39;;;;;;;6.97;3.77;;;;;;;19.57;100.00;99156.17;1752283;81;21659;-68
2022/04/19 00:40:08;;;;;;;6.57;4.07;;;;;;;19.53;100.00;99174.95;1752833;81;21511;-73
2022/04/19 00:42:36;;;;;;;6.17;3.87;;;;;;;19.56;100.00;99173.09;1752411;81;22243;-61
2022/04/19 00:45:06;;;;;;;10.70;5.07;;;;;;;19.87;100.00;99166.67;1752651;81;21477;-63
2022/04/19 00:47:37;;;;;;;9.43;4.53;;;;;;;19.84;100.00;99162.45;1752038;81;21030;-60
2022/04/19 00:50:07;;;;;;;8.50;4.70;;;;;;;19.97;100.00;99171.67;1716833;83;21956;-71
2022/04/19 00:52:37;;;;;;;9.40;4.78;;;;;;;19.31;100.00;99176.03;1717334;83;21001;-59
2022/04/19 00:55:10;;;;;;;7.03;4.47;;;;;;;18.76;100.00;99176.33;1716636;83;21017;-59
2022/04/19 00:57:41;;;;;;;5.97;3.90;;;;;;;18.59;100.00;99173.10;1716906;82;21624;-59
2022/04/19 01:00:12;;;;;;;5.63;4.17;;;;;;;18.65;100.00;99176.81;1716336;83;22162;-60
2022/04/19 01:02:44;;;;;;;7.20;3.43;;;;;;;18.56;100.00;99173.12;1717537;83;21643;-62
2022/04/19 01:05:14;;;;;;;7.28;4.17;;;;;;;18.46;100.00;99169.13;1716794;83;21786;-61
2022/04/19 01:07:45;;;;;;;9.63;5.12;;;;;;;18.47;100.00;99165.44;1709118;83;22014;-67
2022/04/19 01:10:14;;;;;;;7.47;4.30;;;;;;;18.35;100.00;99166.20;1733592;82;21028;-61
2022/04/19 01:15:29;;;;;;;6.17;3.70;;;;;;;18.23;100.00;99165.13;1739099;82;21350;-59
2022/04/19 01:18:02;;;;;;;8.97;4.60;;;;;;;18.37;100.00;99162.27;1704174;83;21922;-58
2022/04/19 01:20:28;;;;;;;6.93;4.60;;;;;;;18.46;100.00;99162.00;1703731;83;22228;-58
2022/04/19 01:22:57;;;;;;;10.17;4.17;;;;;;;18.51;100.00;99165.17;1703872;84;21687;-60
2022/04/19 01:25:27;;;;;;;8.17;4.70;;;;;;;18.52;100.00;99171.23;1703529;84;22556;-72
2022/04/19 01:27:57;;;;;;;9.97;5.10;;;;;;;18.67;100.00;99168.09;1704265;84;22089;-59
2022/04/19 01:30:24;;;;;;;8.03;4.30;;;;;;;18.46;100.00;99165.97;1704404;84;21758;-58
2022/04/19 01:32:53;;;;;;;8.33;4.80;;;;;;;18.53;100.00;99163.08;1704332;84;22173;-66
2022/04/19 01:35:21;;;;;;;6.00;4.10;;;;;;;18.62;100.00;99161.49;1703647;84;21671;-61
2022/04/19 01:37:51;;;;;;;6.27;4.27;;;;;;;18.77;100.00;99166.56;1704189;83;21813;-58
2022/04/19 01:40:20;;;;;;;8.10;4.00;;;;;;;18.77;100.00;99163.92;1739639;81;22170;-58
2022/04/19 01:42:59;;;;;;;8.57;5.10;;;;;;;18.62;100.00;99154.11;1739465;81;21144;-71
2022/04/19 01:45:30;;;;;;;9.77;4.90;;;;;;;18.50;100.00;99149.08;1728351;82;22010;-58
2022/04/19 01:48:00;;;;;;;9.20;5.53;;;;;;;18.21;100.00;99140.31;1695889;84;21055;-58
2022/04/19 01:50:29;;;;;;;10.40;4.13;;;;;;;18.09;100.00;99138.97;1704567;84;21731;-58
2022/04/19 01:52:57;;;;;;;8.33;4.83;;;;;;;18.00;100.00;99142.64;1733670;82;21067;-72
2022/04/19 01:55:25;;;;;;;9.53;4.90;;;;;;;18.27;100.00;99144.30;1740506;81;21768;-58
2022/04/19 01:57:57;;;;;;;8.17;5.30;;;;;;;18.27;100.00;99144.30;1740564;81;21564;-58
2022/04/19 02:00:30;;;;;;;12.03;5.33;;;;;;;18.23;100.00;99152.72;1704956;83;21099;-59
2022/04/19 02:02:58;;;;;;;10.47;5.40;;;;;;;18.52;100.00;99152.77;1703793;84;21687;-65
2022/04/19 02:05:25;;;;;;;10.23;4.67;;;;;;;18.67;100.00;99152.78;1703988;84;21317;-60
2022/04/19 02:07:53;;;;;;;8.20;4.83;;;;;;;18.67;100.00;99152.78;1704033;83;22058;-59
2022/04/19 02:10:21;;;;;;;10.53;5.30;;;;;;;18.56;100.00;99146.73;1704331;84;21750;-59
2022/04/19 02:12:52;;;;;;;10.28;5.58;;;;;;;18.47;100.00;99156.20;1739608;81;24973;-58
2022/04/19 02:15:21;;;;;;;7.67;4.60;;;;;;;18.41;100.00;99159.37;1721158;82;21526;-59
2022/04/19 02:17:51;;;;;;;13.43;5.50;;;;;;;18.34;100.00;99140.35;1739797;81;21743;-59
2022/04/19 02:20:20;;;;;;;10.10;5.57;;;;;;;18.40;100.00;99149.05;1739957;81;21688;-58
2022/04/19 02:22:48;;;;;;;10.73;5.90;;;;;;;18.24;100.00;99158.26;1739939;81;21023;-59
2022/04/19 02:25:17;;;;;;;9.03;6.20;;;;;;;18.35;100.00;99163.56;1740096;81;20973;-71
2022/04/19 02:27:44;;;;;;;10.90;6.67;;;;;;;18.24;100.00;99156.94;1739765;81;21082;-59
2022/04/19 02:30:14;;;;;;;11.10;5.43;;;;;;;18.11;100.00;99160.08;1704210;83;21743;-73
2022/04/19 02:32:44;;;;;;;9.00;5.57;;;;;;;18.08;100.00;99157.95;1712767;82;22370;-59
2022/04/19 02:35:15;;;;;;;10.80;6.83;;;;;;;18.13;100.00;99157.96;1726089;82;21536;-59
2022/04/19 02:37:57;;;;;;;10.07;7.50;;;;;;;18.13;100.00;99154.53;1739705;81;21741;-61
2022/04/19 02:40:26;;;;;;;;;;;;;;;18.27;100.00;99158.80;1706586;83;21722;-61
2022/04/19 02:42:55;;;;;;;10.70;7.63;;;;;;;18.23;100.00;99172.51;1690410;84;20714;-59
2022/04/19 02:45:23;;;;;;;13.93;10.70;;;;;;;18.08;100.00;99163.23;1703253;84;22318;-63
2022/04/19 02:48:07;;;;;;;15.83;11.53;;;;;;;18.29;100.00;99148.23;1703378;84;21818;-60
2022/04/19 02:50:43;;;;;;;14.07;10.93;;;;;;;18.09;100.00;99145.03;1703996;84;21711;-59
2022/04/19 02:53:12;;;;;;;;;;;;;;;18.21;100.00;99145.58;1695672;84;22226;-60
2022/04/19 02:55:40;;;;;;;19.07;14.03;;;;;;;17.84;100.00;99144.93;1703556;84;20204;-74
2022/04/19 02:58:07;;;;;;;17.63;13.97;;;;;;;17.88;100.00;99138.09;1703469;84;23348;-61
2022/04/19 03:00:38;;;;;;;18.75;14.05;;;;;;;17.88;100.00;99138.09;1685852;84;21838;-59
2022/04/19 03:03:12;;;;;;;18.33;14.30;;;;;;;17.79;100.00;99133.05;1703038;84;21060;-64
2022/04/19 03:05:40;;;;;;;21.62;15.95;;;;;;;17.99;100.00;99131.80;1702656;83;22846;-60
2022/04/19 03:08:08;;;;;;;17.33;14.57;;;;;;;18.10;100.00;99131.31;1705830;83;21841;-60
2022/04/19 03:10:37;;;;;;;21.63;14.97;;;;;;;18.20;100.00;99130.81;1709511;83;21755;-59
2022/04/19 03:13:06;;;;;;;19.40;14.83;;;;;;;18.35;100.00;99114.76;1709251;83;21716;-72
2022/04/19 03:15:37;;;;;;;19.30;16.42;;;;;;;18.35;100.00;99114.76;1708870;83;21031;-59
2022/04/19 03:18:05;;;;;;;18.97;15.80;;;;;;;18.17;100.00;99120.78;1709497;83;21449;-62
2022/04/19 03:20:36;;;;;;;17.98;13.90;;;;;;;18.43;100.00;99120.30;1709936;83;22155;-61
2022/04/19 03:28:49;;;;;;;17.27;11.30;;;;;;;18.55;100.00;99129.28;1708822;83;21043;-75
2022/04/19 03:31:17;;;;;;;13.53;10.50;;;;;;;18.49;100.00;99126.39;1709583;83;22152;-59
2022/04/19 03:33:48;;;;;;;13.33;9.87;;;;;;;18.36;100.00;99126.36;1709903;83;21003;-59
2022/04/19 03:36:14;;;;;;;15.63;10.27;;;;;;;18.48;100.00;99135.34;1709140;83;21063;-59
2022/04/19 03:38:43;;;;;;;14.90;9.37;;;;;;;18.66;100.00;99141.97;1709075;83;21054;-67
2022/04/19 03:41:10;;;;;;;14.53;9.33;;;;;;;18.45;100.00;99156.47;1698019;83;21770;-62
2022/04/19 03:43:38;;;;;;;21.77;10.10;;;;;;;18.38;100.00;99158.56;1709270;83;21131;-60
2022/04/19 03:46:05;;;;;;;12.37;8.20;;;;;;;18.22;100.00;99158.24;1708633;83;20988;-63
2022/04/19 03:48:33;;;;;;;10.57;8.37;;;;;;;18.39;100.00;99180.45;1708851;83;21171;-73
2022/04/19 03:51:07;;;;;;;16.07;8.63;;;;;;;18.19;100.00;99165.38;1708832;83;20994;-60
2022/04/19 03:53:32;;;;;;;14.27;8.40;;;;;;;18.32;100.00;99165.41;1708739;83;21114;-60
2022/04/19 03:56:00;;;;;;;13.67;8.33;;;;;;;18.17;100.00;99176.17;1709560;83;21128;-59
2022/04/19 03:58:27;;;;;;;14.70;8.23;;;;;;;18.73;100.00;99178.70;1709520;83;21115;-59
2022/04/19 04:00:55;;;;;;;14.70;8.03;;;;;;;18.64;100.00;99177.09;1708726;83;21869;-72
2022/04/19 04:03:23;;;;;;;10.73;8.37;;;;;;;18.57;100.00;99180.50;1709504;83;21504;-63
2022/04/19 04:05:51;;;;;;;13.13;8.17;;;;;;;18.62;100.00;99172.05;1709475;83;21844;-60
2022/04/19 04:08:20;;;;;;;17.63;9.30;;;;;;;18.74;100.00;99169.72;1707122;83;21581;-61
2022/04/19 04:10:51;;;;;;;14.67;9.33;;;;;;;18.59;100.00;99172.57;1703477;83;21392;-74
2022/04/19 04:13:20;;;;;;;14.17;8.53;;;;;;;18.43;100.00;99181.52;1703658;84;22380;-59
2022/04/19 04:15:52;;;;;;;17.10;9.60;;;;;;;18.39;100.00;99189.70;1703705;83;21767;-59
2022/04/19 04:18:19;;;;;;;14.93;10.07;;;;;;;18.28;100.00;99190.19;1703994;83;21007;-58
2022/04/19 04:20:48;;;;;;;13.53;8.87;;;;;;;18.26;100.00;99186.21;1702906;84;20996;-74
2022/04/19 04:23:15;;;;;;;14.07;9.10;;;;;;;18.33;100.00;99185.45;1703718;84;21593;-62
2022/04/19 04:25:44;;;;;;;14.53;8.97;;;;;;;18.41;100.00;99168.60;1703586;83;20983;-59
2022/04/19 04:28:16;;;;;;;14.68;9.23;;;;;;;18.41;100.00;99168.60;1703508;83;20968;-59
2022/04/19 04:30:45;;;;;;;13.47;9.03;;;;;;;18.42;100.00;99175.45;1703224;83;21095;-68
2022/04/19 04:33:14;;;;;;;15.20;8.93;;;;;;;18.38;100.00;99175.72;1703021;83;21039;-58
2022/04/19 04:35:41;;;;;;;13.17;8.07;;;;;;;18.35;100.00;99154.33;1703631;84;21511;-60
2022/04/19 04:38:10;;;;;;;15.67;7.97;;;;;;;18.55;100.00;99157.00;1692813;84;21268;-62
2022/04/19 04:40:39;;;;;;;14.00;7.87;;;;;;;18.47;100.00;99141.69;1703277;83;20858;-75
2022/04/19 04:43:09;;;;;;;13.67;7.63;;;;;;;19.05;100.00;99147.53;1692185;84;21071;-72
2022/04/19 04:45:38;;;;;;;12.83;6.97;;;;;;;18.90;100.00;99151.00;1703801;84;21063;-62
2022/04/19 04:50:53;;;;;;;11.20;6.43;;;;;;;18.95;100.00;99156.27;1703064;83;22747;-60
2022/04/19 04:53:22;;;;;;;9.60;5.93;;;;;;;19.36;100.00;99148.83;1702897;83;21313;-63
2022/04/19 04:55:50;;;;;;;11.53;5.40;;;;;;;19.10;100.00;99144.91;1701085;84;22319;-58
2022/04/19 04:58:19;;;;;;;14.03;6.93;;;;;;;19.33;100.00;99155.44;1653261;84;21020;-73
2022/04/19 05:00:47;;;;;;;14.43;8.47;;;;;;;19.48;100.00;99163.08;1702688;84;21043;-60
2022/04/19 05:03:14;;;;;;;14.43;8.90;;;;;;;19.37;100.00;99157.80;1737044;82;22227;-59
2022/04/19 05:05:44;;;;;;;12.90;7.17;;;;;;;19.30;100.00;99161.78;1747620;82;21032;-62
2022/04/19 05:08:14;;;;;;;11.87;8.07;;;;;;;19.00;100.00;99167.35;1711219;83;21556;-68
2022/04/19 05:10:43;;;;;;;16.85;7.80;;;;;;;18.91;100.00;99163.13;1712057;83;21221;-60
2022/04/19 05:13:12;;;;;;;12.50;8.57;;;;;;;19.13;100.00;99150.98;1742336;82;20980;-68
2022/04/19 05:15:41;;;;;;;18.10;8.97;;;;;;;19.12;100.00;99141.45;1747575;82;21153;-59
2022/04/19 05:18:09;;;;;;;14.80;9.00;;;;;;;18.99;100.00;99132.77;1735815;82;21360;-73
2022/04/19 05:20:38;;;;;;;14.30;8.50;;;;;;;18.91;100.00;99125.37;1747812;82;21395;-62
2022/04/19 05:23:06;;;;;;;17.40;8.20;;;;;;;18.91;100.00;99134.09;1730510;82;21035;-75
2022/04/19 05:25:33;;;;;;;18.27;8.37;;;;;;;19.26;100.00;99135.63;1747545;82;21086;-63
2022/04/19 05:28:00;;;;;;;16.07;7.83;;;;;;;19.24;100.00;99141.70;1747763;82;21214;-62
2022/04/19 05:30:28;;;;;;;15.97;7.13;;;;;;;19.39;100.00;99141.67;1748062;82;20999;-61
2022/04/19 05:32:56;;;;;;;16.00;6.87;;;;;;;19.53;100.00;99145.34;1746975;81;20976;-59
2022/04/19 05:35:24;;;;;;;19.93;7.67;;;;;;;19.76;100.00;99143.97;1747772;82;22428;-60
2022/04/19 05:37:51;;;;;;;16.87;7.47;;;;;;;19.82;100.00;99149.51;1747519;82;21541;-62
2022/04/19 05:40:20;;;;;;;17.40;7.87;;;;;;;19.88;100.00;99148.41;1711672;83;22042;-60
2022/04/19 05:42:47;;;;;;;12.50;6.10;;;;;;;20.03;100.00;99146.77;1711622;83;21073;-61
2022/04/19 05:45:14;;;;;;;13.60;6.20;;;;;;;20.13;100.00;99146.19;1711380;83;21113;-60
2022/04/19 05:47:43;;;;;;;18.43;7.47;;;;;;;20.08;100.00;99144.90;1711691;83;20939;-60
2022/04/19 05:50:10;;;;;;;16.63;6.57;;;;;;;20.23;100.00;99144.03;1711132;83;21109;-61
2022/04/19 05:52:39;;;;;;;17.63;6.87;;;;;;;20.36;100.00;99146.05;1711768;83;21486;-61
2022/04/19 05:55:10;;;;;;;16.80;6.47;;;;;;;20.77;100.00;99142.37;1700404;83;21096;-61
2022/04/19 05:57:38;;;;;;;22.93;7.03;;;;;;;21.08;100.00;99132.29;1712109;83;21332;-60
2022/04/19 06:00:07;;;;;;;18.57;7.63;;;;;;;21.00;100.00;99136.88;1710828;83;21505;-62
2022/04/19 06:05:24;;;;;;;15.30;6.30;;;;;;;20.74;100.00;99205.15;1711935;83;21293;-60
2022/04/19 06:07:54;;;;;;;13.23;5.83;;;;;;;21.31;100.00;99216.34;1710987;83;21102;-62
2022/04/19 06:10:22;;;;;;;22.23;7.23;;;;;;;21.27;100.00;99229.12;1711547;83;20994;-60
2022/04/19 06:12:52;;;;;;;13.75;6.72;;;;;;;21.32;99.54;99247.62;1711719;83;20998;-70
2022/04/19 06:15:19;;;;;;;23.40;8.57;;;;;;;21.45;99.70;99254.97;1711565;83;20951;-72
2022/04/19 06:17:47;;;;;;;16.33;6.80;;;;;;;21.33;100.00;99212.92;1711184;83;21158;-60
2022/04/19 06:20:17;;;;;;;16.77;7.55;;;;;;;21.30;100.00;99205.50;1693595;83;21525;-59
2022/04/19 06:22:46;;;;;;;18.40;10.80;;;;;;;21.76;98.89;99234.78;1708129;83;21540;-63
2022/04/19 06:25:16;;;;;;;17.25;7.90;;;;;;;22.24;93.85;99238.23;1747492;81;20980;-60
2022/04/19 06:27:43;;;;;;;22.80;7.47;;;;;;;22.91;86.42;99236.80;1746868;82;21035;-61
2022/04/19 06:30:14;;;;;;;21.90;8.43;;;;;;;23.41;79.45;99218.45;1747598;82;20986;-62
2022/04/19 06:32:42;;;;;;;15.37;7.63;;;;;;;23.60;76.92;99232.20;1747312;82;21541;-60
2022/04/19 06:35:10;;;;;;;22.40;7.77;;;;;;;24.06;72.78;99221.51;1721965;82;21110;-65
2022/04/19 06:37:38;;;;;;;17.67;7.37;;;;;;;24.01;69.14;99214.39;1747580;82;21542;-67
2022/04/19 06:40:09;;;;;;;21.23;7.70;;;;;;;24.39;66.02;99196.85;1711325;83;21106;-59
2022/04/19 06:42:37;;;;;;;19.03;7.27;;;;;;;24.53;64.25;99189.38;1711886;83;21210;-62
2022/04/19 06:45:20;;;;;;;17.03;7.37;;;;;;;24.71;62.50;99201.20;1710900;83;21007;-59
2022/04/19 06:48:01;;;;;;;16.80;6.97;;;;;;;25.07;61.61;99188.88;1747158;81;20948;-60
2022/04/19 06:50:30;;;;;;;21.43;8.13;;;;;;;25.08;62.15;99189.12;1747692;81;20928;-59
2022/04/19 06:52:58;;;;;;;15.40;6.53;;;;;;;25.60;57.76;99200.08;1711068;83;21528;-60
2022/04/19 06:55:27;;;;;;;17.93;6.77;;;;;;;25.85;55.78;99196.74;1744922;82;21240;-62
2022/04/19 06:57:57;;;;;;;20.47;7.37;;;;;;;26.11;53.98;99200.03;1747624;82;21102;-61
2022/04/19 07:00:24;;;;;;;20.83;7.40;;;;;;;26.23;53.34;99202.88;1711939;83;21063;-60
2022/04/19 07:02:51;;;;;;;28.20;8.13;;;;;;;26.54;53.17;99192.62;1710991;83;21647;-64
2022/04/19 07:05:39;;;;;;;21.73;6.37;;;;;;;27.24;52.65;99190.64;1710888;83;21513;-61
2022/04/19 07:08:07;;;;;;;23.03;7.63;;;;;;;28.02;49.62;99187.63;1711487;83;21116;-60
2022/04/19 07:10:35;;;;;;;22.13;6.27;;;;;;;28.60;47.59;99184.61;1703758;83;21011;-65
2022/04/19 07:13:21;;;;;;;20.23;7.10;;;;;;;29.34;45.57;99190.44;1703011;84;21046;-61
2022/04/19 07:15:50;;;;;;;19.03;7.20;;;;;;;29.89;43.41;99164.71;1733518;81;21399;-59
2022/04/19 07:18:23;;;;;;;18.67;6.93;;;;;;;29.98;42.51;99188.22;1739192;81;21050;-60
2022/04/19 07:26:38;;;;;;;22.60;8.30;;;;;;;30.51;39.79;99196.52;1739863;82;22156;-59
2022/04/19 07:29:10;;;;;;;25.43;10.73;;;;;;;30.19;39.07;99206.91;1739287;82;21334;-62
2022/04/19 07:31:43;;;;;;;24.67;9.07;;;;;;;30.09;38.47;99190.67;1739663;82;21107;-66
2022/04/19 07:34:13;;;;;;;22.60;8.53;;;;;;;29.95;39.00;99200.42;1704278;83;21281;-59
2022/04/19 07:36:41;;;;;;;23.10;7.43;;;;;;;30.03;39.87;99187.98;1703325;84;21576;-59
2022/04/19 07:39:09;;;;;;;24.87;7.57;;;;;;;30.28;39.21;99196.81;1693588;84;22364;-59
2022/04/19 07:41:39;;;;;;;22.40;8.07;;;;;;;30.61;38.18;99210.05;1739438;81;20980;-59
2022/04/19 07:44:10;;;;;;;22.33;8.17;;;;;;;30.68;37.49;99184.66;1724099;82;21987;-58
2022/04/19 07:46:39;;;;;;;22.43;8.43;;;;;;;30.49;37.35;99192.59;1739116;82;21087;-58
2022/04/19 07:49:06;;;;;;;22.27;7.03;;;;;;;30.27;37.41;99183.16;1739707;81;21460;-59
2022/04/19 07:51:36;;;;;;;20.53;6.77;;;;;;;30.32;37.55;99190.20;1739503;81;21043;-63
2022/04/19 07:54:04;;;;;;;18.57;6.73;;;;;;;30.28;37.97;99184.16;1739588;82;21112;-58
2022/04/19 07:56:33;;;;;;;20.47;6.97;;;;;;;30.44;38.20;99175.36;1739876;81;20972;-62
2022/04/19 07:59:00;;;;;;;22.57;7.33;;;;;;;30.86;38.31;99171.72;1740003;82;22055;-57
2022/04/19 08:01:28;;;;;;;27.27;7.63;;;;;;;31.40;37.37;99167.69;1739244;82;20980;-67
2022/04/19 08:03:57;;;;;;;21.05;7.55;;;;;;;31.76;36.39;99160.44;1739933;81;21011;-58
2022/04/19 08:06:27;;;;;;;23.20;6.95;;;;;;;31.77;36.36;99157.38;1739837;82;21024;-59
2022/04/19 08:08:54;;;;;;;20.43;6.97;;;;;;;31.85;36.22;99147.54;1740964;81;21094;-58
2022/04/19 08:11:23;;;;;;;19.95;6.92;;;;;;;32.07;35.68;99150.93;1752494;81;21067;-65
2022/04/19 08:13:51;;;;;;;23.40;6.22;;;;;;;32.15;35.14;99147.24;1752992;81;21286;-57
2022/04/19 08:16:18;;;;;;;19.15;6.95;;;;;;;32.15;34.37;99147.24;1753315;81;21461;-58
2022/04/19 08:18:48;;;;;;;24.07;7.93;;;;;;;32.30;35.37;99148.88;1752592;81;21485;-57
2022/04/19 08:21:17;;;;;;;20.02;7.50;;;;;;;32.15;35.62;99155.33;1753369;81;21491;-57
2022/04/19 08:23:44;;;;;;;23.30;6.75;;;;;;;32.26;35.44;99146.11;1752889;81;21270;-58
2022/04/19 08:26:15;;;;;;;23.55;6.22;;;;;;;32.14;34.92;99152.43;1716889;83;21079;-58
2022/04/19 08:28:44;;;;;;;23.67;7.60;;;;;;;32.04;35.03;99145.47;1716627;83;21004;-58
2022/04/19 08:31:12;;;;;;;17.45;6.65;;;;;;;31.95;35.09;99144.33;1706998;83;21049;-59
2022/04/19 08:33:41;;;;;;;20.25;6.28;;;;;;;32.06;35.40;99148.60;1716398;83;21717;-58
2022/04/19 08:36:09;;;;;;;20.12;5.28;;;;;;;32.33;35.13;99142.78;1706257;83;20895;-59
2022/04/19 08:38:37;;;;;;;20.80;5.83;;;;;;;32.35;34.84;99144.00;1716780;83;20888;-63
2022/04/19 08:41:05;;;;;;;21.55;6.20;;;;;;;32.53;34.81;99138.95;1716915;83;21015;-59
2022/04/19 08:43:33;;;;;;;19.40;6.10;;;;;;;32.68;34.37;99135.38;1716749;83;20991;-58
2022/04/19 08:46:02;;;;;;;24.77;6.70;;;;;;;32.39;34.65;99146.73;1717009;83;21307;-58
2022/04/19 08:48:30;;;;;;;21.27;6.17;;;;;;;32.06;35.30;99134.55;1717180;83;21917;-58
2022/04/19 08:50:57;;;;;;;28.02;8.53;;;;;;;31.71;35.74;99123.78;1716658;83;21496;-60
2022/04/19 08:58:58;;;;;;;24.57;6.50;;;;;;;31.80;35.96;99140.52;1717336;83;20983;-64
2022/04/19 09:01:26;;;;;;;21.07;6.30;;;;;;;31.55;36.67;99127.83;1716838;83;21138;-58
2022/04/19 09:03:54;;;;;;;25.23;6.60;;;;;;;31.65;36.39;99123.26;1717157;83;21050;-59
2022/04/19 09:06:21;;;;;;;26.60;7.07;;;;;;;31.43;37.01;99130.07;1716899;83;20943;-67
2022/04/19 09:09:09;;;;;;;23.07;6.90;;;;;;;31.61;36.86;99130.48;1717066;83;21046;-57
2022/04/19 09:11:37;;;;;;;31.53;6.40;;;;;;;31.76;37.36;99122.15;1717519;83;21456;-57
2022/04/19 09:14:06;;;;;;;29.20;6.20;;;;;;;31.87;37.09;99131.84;1716210;83;21254;-67
2022/04/19 09:16:35;;;;;;;19.57;5.77;;;;;;;31.68;36.64;99123.13;1717275;83;21419;-57
2022/04/19 09:19:03;;;;;;;21.17;5.80;;;;;;;31.78;36.76;99121.22;1717509;83;21117;-67
2022/04/19 09:21:39;;;;;;;17.63;5.40;;;;;;;31.65;37.03;99115.75;1716986;83;21391;-57
2022/04/19 09:24:19;;;;;;;21.57;6.77;;;;;;;31.38;37.53;99117.45;1716317;83;21041;-59
2022/04/19 09:26:51;;;;;;;21.60;5.70;;;;;;;31.15;37.61;99109.20;1716907;83;20967;-60
2022/04/19 09:29:24;;;;;;;21.20;6.03;;;;;;;31.32;37.85;99107.50;1717158;83;21044;-57
2022/04/19 09:31:58;;;;;;;19.77;5.33;;;;;;;31.64;37.40;99104.77;1717017;83;21002;-58
2022/04/19 09:34:33;;;;;;;26.17;6.33;;;;;;;31.78;35.51;99115.05;1717541;83;20987;-57
2022/04/19 09:37:10;;;;;;;18.20;4.97;;;;;;;31.50;35.68;99097.91;1716997;83;21076;-58
2022/04/19 09:39:39;;;;;;;23.90;7.73;;;;;;;31.64;36.02;99090.72;1717097;83;21332;-58
2022/04/19 09:42:17;;;;;;;25.87;7.73;;;;;;;31.67;36.57;99091.91;1716917;83;20994;-58
2022/04/19 09:44:47;;;;;;;18.90;6.03;;;;;;;31.90;35.31;99097.45;1717276;83;21066;-67
2022/04/19 09:47:14;;;;;;;19.90;6.50;;;;;;;31.89;34.71;99102.61;1714605;83;21141;-58
2022/04/19 09:49:53;;;;;;;21.40;6.80;;;;;;;32.03;35.09;99114.27;1717226;83;20963;-58
2022/04/19 09:52:30;;;;;;;18.40;6.10;;;;;;;31.96;35.59;99112.97;1682523;85;21828;-58
2022/04/19 09:55:08;;;;;;;23.17;5.90;;;;;;;32.01;35.27;99112.47;1706135;83;20988;-57
2022/04/19 09:57:39;;;;;;;21.13;7.37;;;;;;;32.05;35.03;99114.67;1706757;83;20940;-57
2022/04/19 10:00:14;;;;;;;18.87;7.93;;;;;;;32.06;34.69;99110.29;1706075;83;21123;-60
2022/04/19 10:08:24;;;;;;;18.90;5.73;;;;;;;32.77;33.42;99131.12;1706536;83;21003;-57
2022/04/19 10:10:44;;;;;;;20.67;6.50;;;;;;;32.72;34.12;99126.56;1696810;83;21494;-57
2022/04/19 10:13:12;;;;;;;20.07;6.33;;;;;;;32.14;34.84;99135.48;1694030;84;21463;-58
2022/04/19 10:15:42;;;;;;;21.93;5.80;;;;;;;31.66;36.02;99128.08;1693937;84;21056;-60
2022/04/19 10:18:10;;;;;;;24.10;6.80;;;;;;;31.24;36.89;99132.09;1683301;84;21430;-57
2022/04/19 10:20:46;;;;;;;25.43;5.83;;;;;;;30.83;37.92;99138.77;1694170;84;21067;-57
2022/04/19 10:23:15;;;;;;;26.40;7.17;;;;;;;31.35;37.04;99132.95;1693383;84;21479;-64
2022/04/19 10:25:46;;;;;;;21.83;7.57;;;;;;;31.32;35.87;99126.34;1694832;84;21019;-58
2022/04/19 10:28:27;;;;;;;25.60;8.03;;;;;;;31.15;35.54;99134.77;1694482;84;21072;-58
2022/04/19 10:30:53;;;;;;;21.33;6.70;;;;;;;31.01;35.10;99141.35;1694185;84;21255;-66
2022/04/19 10:33:48;;;;;;;24.80;6.93;;;;;;;31.01;34.13;99151.34;1694684;84;21382;-59
2022/04/19 10:36:35;;;;;;;23.17;6.77;;;;;;;30.95;33.82;99136.56;1694524;84;21052;-57
2022/04/19 10:39:18;;;;;;;27.83;7.80;;;;;;;31.13;34.21;99145.87;1694424;84;21143;-57
2022/04/19 10:42:03;;;;;;;23.63;8.23;;;;;;;31.30;33.77;99139.94;1694971;84;21108;-60
2022/04/19 10:44:48;;;;;;;21.93;7.83;;;;;;;31.30;33.67;99147.47;1694564;84;22076;-58
2022/04/19 10:47:18;;;;;;;25.70;8.30;;;;;;;31.32;33.37;99148.45;1671705;84;21022;-59
2022/04/19 10:50:05;;;;;;;21.07;8.67;;;;;;;31.32;33.91;99153.27;1693874;84;21004;-60
2022/04/19 10:52:43;;;;;;;24.03;7.87;;;;;;;31.43;33.52;99154.87;1694562;84;21507;-58
2022/04/19 10:55:23;;;;;;;27.73;8.00;;;;;;;31.59;33.24;99148.89;1683763;84;21608;-61
2022/04/19 10:58:17;;;;;;;20.57;6.60;;;;;;;31.44;33.30;99164.52;1694017;84;21929;-58
2022/04/19 11:00:59;;;;;;;23.67;6.37;;;;;;;31.19;33.37;99156.60;1693421;84;21088;-58
2022/04/19 11:03:40;;;;;;;25.23;8.65;;;;;;;31.01;33.60;99154.03;1694502;84;21504;-57
2022/04/19 11:06:10;;;;;;;22.83;8.33;;;;;;;30.92;33.91;99160.16;1693480;84;21025;-63
2022/04/19 11:08:37;;;;;;;22.50;8.20;;;;;;;30.66;34.42;99151.18;1688098;84;22052;-67
2022/04/19 11:11:23;;;;;;;22.67;9.10;;;;;;;30.48;34.67;99161.45;1690307;84;21092;-59
2022/04/19 11:14:36;;;;;;;24.60;10.43;;;;;;;30.14;35.68;99156.05;1687724;84;20945;-67
2022/04/19 11:17:27;;;;;;;21.50;10.68;;;;;;;29.68;36.53;99156.80;1688329;84;21080;-62
2022/04/19 11:19:58;;;;;;;33.83;9.67;;;;;;;29.67;37.09;99152.00;1688560;84;21461;-61
2022/04/19 11:22:29;;;;;;;26.67;9.03;;;;;;;29.72;37.00;99157.69;1688850;84;21131;-60
2022/04/19 11:25:03;;;;;;;28.80;7.92;;;;;;;29.76;37.08;99136.53;1688197;84;21243;-60
2022/04/19 11:27:59;;;;;;;22.03;6.77;;;;;;;29.79;37.48;99150.63;1688151;84;20989;-58
2022/04/19 11:30:27;;;;;;;23.17;7.77;;;;;;;29.90;36.78;99160.92;1688705;84;21074;-58
2022/04/19 11:32:58;;;;;;;20.53;6.43;;;;;;;29.63;37.43;99151.11;1688164;84;21006;-70
2022/04/19 11:35:32;;;;;;;23.07;6.22;;;;;;;29.62;37.56;99158.14;1688691;84;21096;-59
2022/04/19 11:37:57;;;;;;;16.37;6.03;;;;;;;29.55;37.53;99142.58;1687629;84;21257;-64
2022/04/19 11:48:50;;;;;;;17.60;5.40;;;;;;;29.69;37.26;99144.94;1688323;84;21314;-59
2022/04/19 11:51:19;;;;;;;21.50;8.43;;;;;;;29.57;36.79;99151.88;1688251;84;21241;-69
2022/04/19 11:53:47;;;;;;;19.37;10.53;;;;;;;29.65;38.19;99160.16;1688523;84;21449;-58
2022/04/19 11:56:16;;;;;;;20.07;11.57;;;;;;;29.68;39.17;99176.95;1688319;84;21068;-60
2022/04/19 11:58:52;;;;;;;29.63;12.73;;;;;;;29.58;39.70;99178.95;1688487;84;21096;-58
2022/04/19 12:01:17;;;;;;;23.77;11.77;;;;;;;29.37;40.35;99182.28;1687327;84;21060;-60
2022/04/19 12:03:46;;;;;;;18.10;11.57;;;;;;;29.18;41.26;99186.84;1688476;84;21362;-59
2022/04/19 12:06:16;;;;;;;22.33;12.23;;;;;;;29.04;41.63;99187.70;1687833;84;21070;-57
2022/04/19 12:08:51;;;;;;;20.07;11.87;;;;;;;28.98;41.84;99189.02;1688298;84;21336;-59
2022/04/19 12:11:26;;;;;;;19.93;10.70;;;;;;;28.81;42.44;99185.37;1687815;84;21060;-60
2022/04/19 12:13:53;;;;;;;26.53;12.90;;;;;;;28.84;42.69;99193.33;1688291;84;21065;-59
2022/04/19 12:16:42;;;;;;;20.57;12.30;;;;;;;28.91;42.79;99190.89;1688375;84;20985;-59